logo
Rechercher aéroport 
image banner adimage banner adimage banner ad
image banner ad

FA0645 - Honniball Farm Private Airfield

Situé à , South Africa

ICAO - , IATA -

Données fournies par Airmate  

Information générale

Coordonnées: S28°44'39" E29°26'14"
Élévation : 3942 feet MSL.
 
Voir autres Aéroports à Kwazulu-Natal

Données opérationnelles

Special qualification required
Heure actuelle UTC:
Heure actuelle locale:
Météo à : - ( 0 km )
METAR: KOTG 172331Z AUTO 19021G28KT VCTS SCT110 23/13 A2957 RMK AO2 PK WND 20034/2319 LTG DSNT S-W TSB25 PWINO $
Voir NOTAMs / SUP AIP / TFR affectant cet aéroport [VIEW]
Fréquences de communication: [VIEW]

Pistes:

Coordonnées de l'aéroport

Adresse: South Africa

Vue satellite de FA0645